09 abril 2008

Mau tempo nos Açores

Como já tenho feito noutras ocasiões de mau tempo, deixo aqui alguns dos piores relatórios METAR do dia 8, das ilhas que os têm disponíveis na internet.

LPHR 081630Z 04034G52KT 9999 SCT016 FEW018TCU SCT080 14/07 Q0997
LPHR 081900Z 04028G46KT 6000 SHRAGS BKN016 SCT018TCU 13/07 Q1001
Neste último, destaque para a chuva de granizo!

LPLA 081600Z 36020G33KT 330V100 7000 3000NW -RA BKN016 OVC070 12/08 Q0998 WHT/WHT RMK CNTR RWY WND 04035G45KT XWND44KT SVR TURB PK WND 36037/29

LPPD 082030Z 03038G56KT 4000 SHRA FEW012 SCT016 FEW020CB BKN200 12/07 Q0991

LPAZ 082230Z 02030G45KT 9999 VCSH FEW010 SCT014 FEW020TCU OVC120 12/09 Q0993

LPFL 081300Z 02021G40KT 9000 -SHRA BKN020 SCT023CB 12/07 Q1007 RMK RWY36 03017G29KT 010V090

Durante a manhã ainda se realizaram alguns voos da SATA Air Açores com três partidas e uma chegada a Ponta Delgada, segundo o site da ANA, mas à tarde não se realizaram quaisquer voos inter-ilhas.
Ponta Delgada terá sido o local onde o tempo esteve pior, com o vento a manter-se forte e na zona dos 90 graus em relação à orientação da pista. Mesmo assim aterraram dois voos da SATA Internacional às 15:00 e 17:43, e a baixo deixo ainda os METAR dessa parte da tarde:

LPPD 081800Z 03035G53KT 5000 SHRA FEW012 SCT017 FEW020CB 11/10 Q0990 WS ALL RWY

LPPD 081730Z 03033G52KT 350V050 8000 -SHRA FEW012 SCT017 FEW020CB 12/09 Q0988 WS ALL RWY

LPPD 081700Z 03033G50KT 8000 -SHRA FEW012 SCT017 FEW020CB 12/10 Q0989 WS ALL RWY

LPPD 081630Z 03032G52KT 8000 -SHRA FEW012 SCT017 FEW020CB 13/09 Q0989 WS ALL RWY

LPPD 081600Z 03033G50KT 8000 -SHRA FEW012 SCT017 FEW020CB 13/09 Q0988 WS ALL RWY

LPPD 081530Z 03032G48KT 360V060 5000 SHRA FEW009 SCT017 FEW020CB 13/09 Q0989 WS RWY12 AND RWY30

LPPD 081500Z 03030G48KT 360V060 5000 SHRA FEW009 SCT017 FEW020CB 13/09 Q0989

LPPD 081430Z 03032G45KT 4000 SHRA FEW009 SCT017 FEW020CB 13/10 Q0989

Hoje a meteorologia já começou a melhorar, e a esta hora (11:25Z) já partiu um voo de Ponta Delgada para as Flores e outro para o Pico. Da Terceira já se voou para a Graciosa e o Dornier também já anda no ar. De qualquer forma ainda formam cancelados alguns voos matinais, dois deles da Terceira para Ponta Delgada, onde o vento ainda sopra acima dos 40 nós, e estão muitos outros atrasados.
A previsão é para uma melhoria gradual do estado do tempo, e tudo indica que durante esta tarde se regularizem os voos e que a maioria dos passageiros retidos chegue ao seu destino.


12 comentários:

terceirense disse...

O vôo da TAP que fazia LIS-PIX-TER-LIS parou na Terceira, não descarregou a bagagem nem deixou o pessoal ficar em terra, foi a S. Miguel deixar o ppl do Pico e voltou para Lisboa porque não se responsabilizavam por nada nos Açores. Quem quisesse ficava por sua conta e risco, só pagavam alojamento e alimentação em lisboa e foram cerca de 30 pessoas nesta situação.
Isto é que é um serviço público??
A Sata responsabiliza-se mas a Tap não.

João Soares disse...

Ou seja 30 terceirenses e quantos picoenses que sairam em PDL +/-? abraços

terceirense disse...

tinha 45 passageiros de Lisboa para o Pico

Anónimo disse...

10 Picoenses
Alguns Picoenses ficaram na Terceira

jose disse...

Poderá me dizer quando é que o voo da TAP para o pico passa para o fim de semana??? Os horários têm é à terça

Rui Medeiros disse...

Ainda não foram publicadas as alterações ás regras do serviço público de transporte aéreo no jornal oficial da União Europeia, e enquanto assim for, nada obriga as transportadoras a mudarem os horários.

jorge disse...

Não sei a que vôo da TAP o Terceirense se refere,mas no da ultima terça não foi de certeza, porque eu estava nesse vôo e não aterrou em Ponta Delgada.

Cumprimentos,
Jorge

Padre disse...

Apenas podemos concluir que um voo por semana e mais do que suficiente para o pico,pois nao podemos andar a suportar mais que isso,como tambem seria um por semana para sao jorge.
O pessoal do pico anda a tapar o sol com a peneira . Quer mais servico publico??? andam mas e doidos...tomem juizo.

Pedro Homen disse...

O que me chateia e ter que passar pelo pico para ir para a terceira,nao esta certo.
Podem perfeitamente ir pelo pico.

curioso disse...

Este blogue da para perceber que o Pico em vez de unir-se faz guera a todos,o hitler tambem era assim e teve um final ....

Anónimo disse...

Sr.Rui nao sei se e problema do meu comp. porque enviei a minha opiniao mas nao apareceu.

Anónimo disse...

Bem,...ferias prolongadas para a publicacao das nossas opinioes,mas o Rui tambem tem direito.